• Join FlightAware (Why Join?)
  • Login
  • US Flag 
02:21AM EDT


 

Airport Tracker/Info


-or-


 

Live Flight TrackerFlight Track Log ✈ DAL6067 ✈ 23-Apr-2013 ✈ KDTW - KCMH

Flight Track Log - Related Links

Times and Time Zones

All times are in EDT time to prevent confusion due to time zone crossing. See the DAL6067 flight status page for this flight to view local times or setup timezone preferences in your user account.

Time Position Orientation Groundspeed Altitude Reporting Facility
EDT Latitude Longitude Course Direction KTS MPH feet Rate Location/Type
12:22PM 42.2036 -83.3556 180° South 151 174 1,400  Level Cleveland Center
12:22PM 42.1886 -83.3592 190° South 176 203 2,400 2,820 Climbing FAA TRACON SMA TRACON (SMA)
12:23PM 42.1719 -83.3644 193° South 182 209 3,500 3,000 Climbing FAA TRACON SMA TRACON (SMA)
12:23PM 42.1564 -83.3692 193° South 184 212 4,400 2,580 Climbing FAA TRACON SMA TRACON (SMA)
12:23PM 42.1411 -83.3733 191° South 190 219 5,300 2,580 Climbing FAA TRACON SMA TRACON (SMA)
12:24PM 42.1217 -83.3786 191° South 210 242 6,200 2,460 Climbing FAA TRACON SMA TRACON (SMA)
12:24PM 42.1028 -83.3847 193° South 224 258 6,900 2,580 Climbing FAA TRACON SMA TRACON (SMA)
12:24PM 42.0806 -83.3917 193° South 230 265 7,900 3,300 Climbing FAA TRACON SMA TRACON (SMA)
12:25PM 41.8507 -83.2758 180° South  Level Estimated
12:25PM 42.0600 -83.3972 191° South 231 266 9,100  Level FAA TRACON SMA TRACON (SMA)
12:25PM 42.0392 -83.4031 192° South 234 269 9,800 1,740 Climbing FAA TRACON SMA TRACON (SMA)
12:25PM 42.0153 -83.4086 190° South 263 303 10,300 1,980 Climbing FAA TRACON SMA TRACON (SMA)
12:26PM 41.7603 -83.2566 180° South  Level Estimated
12:26PM 41.9928 -83.4089 181° South 261 300 11,100  Level FAA TRACON SMA TRACON (SMA)
12:26PM 41.9633 -83.4028 171° South 279 321 11,700 1,500 Climbing FAA TRACON SMA TRACON (SMA)
12:26PM 41.9372 -83.3972 171° South 296 341 12,100 1,020 Climbing FAA TRACON SMA TRACON (SMA)
12:27PM 41.6698 -83.2374 180° South  Level Estimated
12:27PM 41.9119 -83.3914 170° South 309 356 12,400  Level FAA TRACON SMA TRACON (SMA)
12:27PM 41.8769 -83.3844 172° South 327 376 12,800 900 Climbing FAA TRACON SMA TRACON (SMA)
12:27PM 41.8478 -83.3783 171° South 342 394 13,000 300 Climbing FAA TRACON SMA TRACON (SMA)
12:28PM 41.8175 -83.3722 171° South 356 410 13,000 720 Level FAA TRACON SMA TRACON (SMA)
12:28PM 41.7783 -83.3639 171° South 367 422 13,500 1,260 Climbing FAA TRACON SMA TRACON (SMA)
12:28PM 41.7469 -83.3575 171° South 369 425 13,900 1,440 Climbing FAA TRACON SMA TRACON (SMA)
12:29PM 41.7078 -83.3492 171° South 369 425 14,500 1,620 Climbing FAA TRACON SMA TRACON (SMA)
12:29PM 41.6767 -83.3433 172° South 369 425 15,000 1,500 Climbing FAA TRACON SMA TRACON (SMA)
12:29PM 41.6453 -83.3394 175° South 368 423 15,500 1,380 Climbing FAA TRACON SMA TRACON (SMA)
12:30PM 41.6139 -83.3386 179° South 363 418 15,900 720 Climbing FAA TRACON SMA TRACON (SMA)
12:30PM 41.5736 -83.3369 178° South 376 433 16,000 120 Climbing FAA TRACON SMA TRACON (SMA)
12:30PM 41.5406 -83.3364 179° South 383 441 16,000  Level FAA TRACON SMA TRACON (SMA)
12:31PM 41.5000 -83.3503 194° South 382 440 16,000  Level FAA TRACON SMA TRACON (SMA)
12:31PM 41.4703 -83.3683 204° Southwest 381 438 16,000  Level FAA TRACON SMA TRACON (SMA)
12:31PM 41.4406 -83.3839 201° Southwest 373 429 16,000  Level FAA TRACON SMA TRACON (SMA)
12:32PM 41.4114 -83.4008 204° Southwest 371 427 16,000  Level FAA TRACON SMA TRACON (SMA)
12:32PM 41.3753 -83.4217 203° Southwest 370 426 16,000  Level FAA TRACON SMA TRACON (SMA)
12:32PM 41.3464 -83.4386 204° Southwest 369 425 16,000  Level FAA TRACON SMA TRACON (SMA)
12:33PM 41.3392 -83.4428 203° Southwest 368 423 16,000  Level FAA TRACON SMA TRACON (SMA)
12:33PM 41.3392 -83.4428 153° Southeast 368 423 16,000 -1,020 Level FAA TRACON SMA TRACON (SMA)
12:33PM 41.2325 -83.5044 204° Southwest 373 429 15,200 -1,380 Descending Cleveland Center
12:34PM 41.1436 -83.5556 203° Southwest 367 422 14,000 -1,200 Descending Cleveland Center
12:35PM 41.0653 -83.6017 204° Southwest 351 404 12,800 -1,200 Descending Cleveland Center
12:36PM 40.9764 -83.6525 203° Southwest 345 397 11,600 -960 Descending Cleveland Center
12:37PM 40.8861 -83.6786 192° South 345 397 10,900 -360 Descending Cleveland Center
12:38PM 40.8042 -83.6225 153° Southeast 310 357 10,900  Level Cleveland Center
12:39PM 40.7228 -83.5503 146° Southeast 326 375 10,900 -480 Level Cleveland Center
12:40PM 40.6392 -83.4753 146° Southeast 353 406 10,000 -540 Descending Cleveland Center
12:41PM 40.5547 -83.4011 146° Southeast 358 412 9,900  Descending Indianapolis Center
12:42PM 40.4772 -83.3325 146° Southeast 340 391 10,000  Climbing Indianapolis Center
12:43PM 40.4014 -83.2683 147° Southeast 326 375 10,000  Level Indianapolis Center
12:44PM 40.3228 -83.2008 147° Southeast 329 379 10,000  Level Indianapolis Center
12:45PM 40.2431 -83.1336 147° Southeast 336 387 10,000 -540 Level Indianapolis Center
12:47PM 40.1558 -83.0586 147° Southeast 272 313 8,900 -1,320 Descending Indianapolis Center
12:48PM 40.1092 -82.9983 135° Southeast 280 322 7,400 -1,500 Descending Indianapolis Center
12:49PM 40.0933 -82.8989 102° East 279 321 6,100 -1,380 Descending Indianapolis Center
12:50PM 40.0783 -82.8011 101° East 274 315 4,600 -1,500 Descending Indianapolis Center